[ [{"id":"current","city":"Tucson","state":"AZ","station":"KTUS","time":1480747980,"time_local":"2016-12-02T23:53:00-0700","timezone_offset":"-7","current_temp":"50","current_temp_c":"10","dew_point":"21","dew_point_c":"-6","relative_humidity":"32","wind_speed":"5","wind_deg":"180","wind_dir":"S","wind_gust":"","barometer":"29.92","weather":"","conditions":"Overcast","icon":22,"text_icon":"cloudy_night","ceiling":"8000","visibility":"10","heat_index":"50","heat_index_c":"10","wind_chill":"50","wind_chill_c":"10","feels_like":"50","feels_like_c":"10","snow_depth":"","high_temp_6hr":"54","high_temp":"62","low_temp_6hr":"48","low_temp":"37","precip_3hr":"","precip_6hr":"","precip":"","coded_weather":"NSW","enhanced_weather":"","report_text":"KTUS 030653Z 18004KT 10SM OVC080 10/M06 A2992 RMK AO2 SLP113 T01001061 401670028 ","daynight":"N","temp_trend":"HIGHER","wind_low":"5","wind_high":"","update":"2016-12-03T06:53:00+0000","image":"http://bloximages.chicago2.vip.townnews.com/tucson.com/content/tncms/live/components/lee_core_2/resources/images/weather-icons/22.png?_dc=1450868986","radar_map":"http://bloximages.chicago2.vip.townnews.com/tucson.com/shared-content/art/townnews-weather/images/southwest_loop.gif?_dc=1480752002","radar_map_us":"http://bloximages.chicago2.vip.townnews.com/tucson.com/shared-content/art/townnews-weather/images/usa_loop.gif?_dc=1480752003"}] ]